Time;durP1;ratioP1;P1;durP2;ratioP2;P2;SDS_P1;SDS_P2;PMS_P1;PMS_P2;Temp;Humidity;BMP_temperature;BMP_pressure;BME280_temperature;BME280_humidity;BME280_pressure;Samples;Min_cycle;Max_cycle;Signal;HPM_P1;HPM_P2
2022/10/13 00:00:30;;;;;;;9.20;7.88;;;;;;;;;;1035256;28;20088;-76
2022/10/13 00:01:07;;;;;;;10.68;7.07;;;;;;;;;;1039439;28;20472;-76
2022/10/13 00:01:37;;;;;;;8.93;6.70;;;;;;;;;;1039865;28;20032;-76
2022/10/13 00:02:08;;;;;;;12.50;7.40;;;;;;;;;;1038244;28;20052;-76
2022/10/13 00:02:39;;;;;;;10.98;7.78;;;;;;;;;;1031513;28;20511;-76
2022/10/13 00:03:10;;;;;;;11.50;7.82;;;;;;;;;;1033883;28;20034;-76
2022/10/13 00:03:45;;;;;;;13.77;8.10;;;;;;;;;;1035212;28;20018;-76
2022/10/13 00:04:15;;;;;;;12.60;7.40;;;;;;;;;;1036676;28;20010;-76
2022/10/13 00:04:46;;;;;;;13.32;8.27;;;;;;;;;;1041171;28;20029;-76
2022/10/13 00:05:17;;;;;;;13.73;8.65;;;;;;;;;;1039552;28;20364;-76
2022/10/13 00:05:49;;;;;;;9.40;5.80;;;;;;;;;;1039407;28;20052;-75
2022/10/13 00:06:22;;;;;;;13.43;7.28;;;;;;;;;;1035426;28;20033;-77
2022/10/13 00:06:53;;;;;;;11.60;8.00;;;;;;;;;;1035744;28;20135;-75
2022/10/13 00:07:24;;;;;;;11.20;8.02;;;;;;;;;;1035305;28;20112;-75
2022/10/13 00:07:55;;;;;;;14.40;8.32;;;;;;;;;;1036075;28;20032;-75
2022/10/13 00:08:26;;;;;;;11.98;8.10;;;;;;;;;;1034904;28;20091;-75
2022/10/13 00:08:58;;;;;;;11.45;7.35;;;;;;;;;;1031202;28;20244;-76
2022/10/13 00:09:29;;;;;;;10.43;7.43;;;;;;;;;;1027639;28;20023;-76
2022/10/13 00:10:00;;;;;;;11.50;7.60;;;;;;;;;;1033713;28;20026;-76
2022/10/13 00:10:30;;;;;;;11.80;6.53;;;;;;;;;;1039465;28;20097;-75
2022/10/13 00:11:08;;;;;;;11.95;8.40;;;;;;;;;;1039584;28;20495;-76
2022/10/13 00:11:39;;;;;;;9.43;6.60;;;;;;;;;;1040077;28;20025;-75
2022/10/13 00:12:10;;;;;;;8.90;6.72;;;;;;;;;;1039286;28;20021;-75
2022/10/13 00:12:41;;;;;;;12.90;7.85;;;;;;;;;;1039279;28;20813;-77
2022/10/13 00:13:12;;;;;;;12.00;8.15;;;;;;;;;;1035185;28;20026;-76
2022/10/13 00:13:43;;;;;;;15.05;8.45;;;;;;;;;;1037869;28;20032;-75
2022/10/13 00:14:14;;;;;;;10.43;6.57;;;;;;;;;;1035764;28;20072;-76
2022/10/13 00:14:45;;;;;;;10.68;5.55;;;;;;;;;;1035514;28;20456;-75
2022/10/13 00:15:16;;;;;;;14.35;8.32;;;;;;;;;;1035808;28;20072;-75
2022/10/13 00:15:48;;;;;;;8.90;6.65;;;;;;;;;;1039462;28;20029;-78
2022/10/13 00:16:20;;;;;;;14.93;9.02;;;;;;;;;;1039815;28;20159;-76
2022/10/13 00:16:51;;;;;;;14.90;8.98;;;;;;;;;;1038984;28;20172;-76
2022/10/13 00:17:23;;;;;;;11.50;8.10;;;;;;;;;;1031260;28;20034;-76
2022/10/13 00:17:53;;;;;;;10.32;7.80;;;;;;;;;;1031289;28;20121;-76
2022/10/13 00:18:24;;;;;;;11.88;8.20;;;;;;;;;;1031598;28;20030;-75
2022/10/13 00:18:56;;;;;;;12.60;8.07;;;;;;;;;;1034718;28;20564;-76
2022/10/13 00:19:28;;;;;;;10.95;7.53;;;;;;;;;;1031802;28;20050;-76
2022/10/13 00:19:59;;;;;;;13.90;7.88;;;;;;;;;;1027431;28;20038;-76
2022/10/13 00:20:30;;;;;;;11.60;7.53;;;;;;;;;;1030506;28;20031;-75
2022/10/13 00:21:05;;;;;;;10.65;6.88;;;;;;;;;;1035739;28;20577;-76
2022/10/13 00:21:36;;;;;;;11.68;7.03;;;;;;;;;;1039319;28;20017;-75
2022/10/13 00:22:07;;;;;;;10.85;6.88;;;;;;;;;;1039755;28;20979;-77
2022/10/13 00:22:38;;;;;;;8.00;6.25;;;;;;;;;;1039257;28;20853;-75
2022/10/13 00:23:09;;;;;;;10.48;7.45;;;;;;;;;;1040008;28;20037;-76
2022/10/13 00:23:40;;;;;;;10.55;7.45;;;;;;;;;;1038049;28;20024;-76
2022/10/13 00:24:11;;;;;;;11.23;6.40;;;;;;;;;;1039626;28;20029;-75
2022/10/13 00:24:42;;;;;;;10.60;7.68;;;;;;;;;;1036082;28;20029;-75
2022/10/13 00:25:13;;;;;;;11.80;6.38;;;;;;;;;;1035215;28;20040;-75
2022/10/13 00:25:45;;;;;;;10.50;6.18;;;;;;;;;;1035213;28;20036;-76
2022/10/13 00:26:17;;;;;;;10.13;6.50;;;;;;;;;;1034849;28;20026;-76
2022/10/13 00:26:49;;;;;;;9.55;7.15;;;;;;;;;;1037502;28;20084;-77
2022/10/13 00:27:20;;;;;;;10.05;6.00;;;;;;;;;;1043860;28;20033;-75
2022/10/13 00:27:51;;;;;;;8.88;6.30;;;;;;;;;;1042655;28;20020;-76
2022/10/13 00:28:22;;;;;;;9.95;6.90;;;;;;;;;;1040199;28;20040;-77
2022/10/13 00:28:53;;;;;;;11.45;7.55;;;;;;;;;;1039256;28;20026;-76
2022/10/13 00:29:24;;;;;;;9.88;6.35;;;;;;;;;;1039523;28;20420;-77
2022/10/13 00:29:55;;;;;;;11.48;6.78;;;;;;;;;;1039494;28;20428;-78
2022/10/13 00:30:26;;;;;;;8.52;7.28;;;;;;;;;;1039372;28;20617;-76
2022/10/13 00:30:57;;;;;;;7.43;6.07;;;;;;;;;;1035835;28;20481;-77
2022/10/13 00:31:30;;;;;;;9.88;6.55;;;;;;;;;;1039681;28;20033;-77
2022/10/13 00:32:01;;;;;;;9.65;5.75;;;;;;;;;;1039820;28;20026;-77
2022/10/13 00:32:32;;;;;;;12.20;6.60;;;;;;;;;;1035357;28;20121;-78
2022/10/13 00:33:03;;;;;;;8.20;7.05;;;;;;;;;;1035339;28;20030;-77
2022/10/13 00:33:33;;;;;;;8.90;6.75;;;;;;;;;;1038365;28;20034;-77
2022/10/13 00:34:04;;;;;;;9.05;6.05;;;;;;;;;;1039194;28;20030;-76
2022/10/13 00:34:41;;;;;;;8.80;5.82;;;;;;;;;;1039903;28;20033;-77
2022/10/13 00:35:12;;;;;;;8.13;6.63;;;;;;;;;;1035272;28;20148;-76
2022/10/13 00:35:45;;;;;;;11.02;6.57;;;;;;;;;;1036554;28;20128;-76
2022/10/13 00:36:16;;;;;;;9.73;6.40;;;;;;;;;;1039539;28;20037;-77
2022/10/13 00:36:47;;;;;;;11.02;6.93;;;;;;;;;;1038824;28;20477;-77
2022/10/13 00:37:18;;;;;;;10.20;7.05;;;;;;;;;;1035717;28;20467;-77
2022/10/13 00:37:49;;;;;;;9.43;6.72;;;;;;;;;;1037965;28;20026;-77
2022/10/13 00:38:20;;;;;;;8.02;6.30;;;;;;;;;;1035296;28;20110;-77
2022/10/13 00:38:52;;;;;;;6.90;5.47;;;;;;;;;;1035919;28;20029;-77
2022/10/13 00:39:23;;;;;;;10.80;6.55;;;;;;;;;;1040737;28;20111;-77
2022/10/13 00:39:54;;;;;;;9.48;6.60;;;;;;;;;;1043943;28;20017;-77
2022/10/13 00:40:25;;;;;;;9.13;5.50;;;;;;;;;;1039677;28;20018;-77
2022/10/13 00:40:56;;;;;;;10.23;7.03;;;;;;;;;;1038702;28;20136;-76
2022/10/13 00:41:27;;;;;;;10.90;6.70;;;;;;;;;;1031473;28;20951;-78
2022/10/13 00:41:58;;;;;;;9.07;6.65;;;;;;;;;;1031637;28;20161;-77
2022/10/13 00:42:29;;;;;;;8.70;6.50;;;;;;;;;;1036128;28;20101;-77
2022/10/13 00:43:00;;;;;;;8.85;6.60;;;;;;;;;;1042985;28;20025;-77
2022/10/13 00:43:50;;;;;;;10.52;7.28;;;;;;;;;;1039486;28;20037;-78
2022/10/13 00:44:39;;;;;;;7.72;6.10;;;;;;;;;;1039453;28;20286;-77
2022/10/13 00:45:23;;;;;;;9.13;6.80;;;;;;;;;;1039809;28;20547;-77
2022/10/13 00:45:54;;;;;;;8.88;6.53;;;;;;;;;;1039338;28;20116;-77
2022/10/13 00:46:26;;;;;;;10.45;6.35;;;;;;;;;;1042805;28;20035;-77
2022/10/13 00:46:57;;;;;;;10.05;6.18;;;;;;;;;;1037654;28;20444;-77
2022/10/13 00:47:32;;;;;;;10.02;6.25;;;;;;;;;;1036084;28;20497;-77
2022/10/13 00:48:03;;;;;;;8.50;5.80;;;;;;;;;;1039391;28;20113;-77
2022/10/13 00:48:34;;;;;;;12.52;7.82;;;;;;;;;;1039436;28;20279;-77
2022/10/13 00:49:10;;;;;;;8.57;6.00;;;;;;;;;;1035516;28;20403;-76
2022/10/13 00:49:41;;;;;;;10.20;6.70;;;;;;;;;;1037254;28;20041;-77
2022/10/13 00:50:14;;;;;;;10.23;6.53;;;;;;;;;;1039708;28;20074;-77
2022/10/13 00:50:46;;;;;;;8.98;6.75;;;;;;;;;;1035547;28;20022;-77
2022/10/13 00:51:18;;;;;;;18.65;7.63;;;;;;;;;;1037251;28;20025;-77
2022/10/13 00:51:50;;;;;;;9.10;8.10;;;;;;;;;;1039625;28;20033;-77
2022/10/13 00:52:21;;;;;;;9.40;7.13;;;;;;;;;;1039521;28;20022;-76
2022/10/13 00:52:53;;;;;;;10.00;6.63;;;;;;;;;;1039212;28;20083;-76
2022/10/13 00:53:28;;;;;;;11.85;6.70;;;;;;;;;;1040100;28;20120;-78
2022/10/13 00:53:59;;;;;;;10.80;7.20;;;;;;;;;;1044664;28;20096;-77
2022/10/13 00:54:30;;;;;;;9.63;6.30;;;;;;;;;;1046908;28;20031;-77
2022/10/13 00:55:02;;;;;;;12.43;8.25;;;;;;;;;;1035278;28;20057;-76
2022/10/13 00:55:34;;;;;;;13.60;9.00;;;;;;;;;;1031310;28;20501;-78
2022/10/13 00:56:07;;;;;;;9.40;6.82;;;;;;;;;;1031526;28;20053;-76
2022/10/13 00:56:38;;;;;;;12.23;6.80;;;;;;;;;;1034142;28;20108;-77
2022/10/13 00:57:09;;;;;;;13.90;7.60;;;;;;;;;;1036170;28;20125;-77
2022/10/13 00:57:41;;;;;;;10.38;7.43;;;;;;;;;;1040028;28;20030;-77
2022/10/13 00:58:15;;;;;;;9.18;7.53;;;;;;;;;;1035746;28;20100;-78
2022/10/13 00:58:47;;;;;;;9.23;6.72;;;;;;;;;;1036079;28;20025;-76
2022/10/13 00:59:23;;;;;;;10.23;7.28;;;;;;;;;;1034663;28;20061;-77
2022/10/13 00:59:54;;;;;;;10.95;7.90;;;;;;;;;;1034629;28;20030;-77
2022/10/13 01:00:25;;;;;;;12.07;8.10;;;;;;;;;;1036664;28;20045;-76
2022/10/13 01:00:56;;;;;;;11.13;7.22;;;;;;;;;;1036108;28;20481;-77
2022/10/13 01:01:27;;;;;;;9.82;6.70;;;;;;;;;;1035042;28;20469;-77
2022/10/13 01:01:59;;;;;;;10.55;8.20;;;;;;;;;;1031540;28;20018;-77
2022/10/13 01:02:31;;;;;;;11.20;7.72;;;;;;;;;;1035530;28;20025;-77
2022/10/13 01:03:02;;;;;;;11.88;8.07;;;;;;;;;;1040478;28;20026;-77
2022/10/13 01:03:34;;;;;;;11.95;8.10;;;;;;;;;;1035528;28;20033;-77
2022/10/13 01:04:05;;;;;;;13.32;8.88;;;;;;;;;;1036154;28;20049;-77
2022/10/13 01:04:39;;;;;;;11.75;7.45;;;;;;;;;;1039606;28;20021;-77
2022/10/13 01:05:10;;;;;;;12.00;7.97;;;;;;;;;;1039609;28;20037;-77
2022/10/13 01:05:41;;;;;;;10.95;7.97;;;;;;;;;;1038540;28;20029;-77
2022/10/13 01:06:13;;;;;;;13.32;7.22;;;;;;;;;;1036960;28;20167;-77
2022/10/13 01:06:44;;;;;;;10.95;7.65;;;;;;;;;;1039375;28;20028;-76
2022/10/13 01:07:16;;;;;;;11.95;7.38;;;;;;;;;;1035137;28;20155;-77
2022/10/13 01:07:50;;;;;;;10.65;7.03;;;;;;;;;;1036538;28;21103;-78
2022/10/13 01:08:22;;;;;;;13.25;7.50;;;;;;;;;;1040394;28;20411;-77
2022/10/13 01:08:53;;;;;;;11.00;6.97;;;;;;;;;;1043761;28;20025;-77
2022/10/13 01:09:24;;;;;;;13.52;7.65;;;;;;;;;;1043806;28;20017;-78
2022/10/13 01:09:55;;;;;;;14.38;9.05;;;;;;;;;;1043164;28;20729;-77
2022/10/13 01:10:41;;;;;;;13.00;8.63;;;;;;;;;;1035853;28;20017;-77
2022/10/13 01:11:36;;;;;;;9.48;6.82;;;;;;;;;;1035200;28;20034;-77
2022/10/13 01:12:16;;;;;;;9.93;6.80;;;;;;;;;;1035275;28;20030;-77
2022/10/13 01:13:07;;;;;;;11.63;8.02;;;;;;;;;;1037781;28;20033;-74
2022/10/13 01:13:44;;;;;;;13.13;8.98;;;;;;;;;;1037126;28;20410;-74
2022/10/13 01:14:35;;;;;;;9.70;7.65;;;;;;;;;;1039452;28;20029;-75
2022/10/13 01:15:18;;;;;;;12.25;7.90;;;;;;;;;;1035819;28;20627;-76
2022/10/13 01:15:53;;;;;;;13.05;8.90;;;;;;;;;;1036045;28;20176;-75
2022/10/13 01:16:32;;;;;;;12.07;7.28;;;;;;;;;;1035485;28;20081;-76
2022/10/13 01:17:21;;;;;;;11.95;7.63;;;;;;;;;;1034556;28;20034;-76
2022/10/13 01:18:07;;;;;;;11.52;8.60;;;;;;;;;;1039482;28;20060;-76
2022/10/13 01:18:47;;;;;;;10.30;6.60;;;;;;;;;;1043668;28;20127;-76
2022/10/13 01:19:39;;;;;;;9.70;6.03;;;;;;;;;;1043500;28;20036;-76
2022/10/13 01:20:15;;;;;;;13.40;8.27;;;;;;;;;;1039390;28;20649;-75
2022/10/13 01:20:49;;;;;;;13.32;8.10;;;;;;;;;;1037670;28;20026;-76
2022/10/13 01:21:23;;;;;;;13.10;8.00;;;;;;;;;;1043327;28;20027;-75
2022/10/13 01:21:57;;;;;;;9.85;6.22;;;;;;;;;;1042813;28;20028;-76
2022/10/13 01:23:03;;;;;;;11.90;8.02;;;;;;;;;;1039303;28;20029;-75
2022/10/13 01:23:34;;;;;;;;;;;;;;;;;;1023241;29;20031;-76
2022/10/13 01:24:15;;;;;;;9.33;6.93;;;;;;;;;;1019303;29;19911;-76
2022/10/13 01:24:53;;;;;;;10.88;7.35;;;;;;;;;;1018974;29;20789;-76
2022/10/13 01:25:44;;;;;;;11.45;7.15;;;;;;;;;;1019279;29;20038;-76
2022/10/13 01:26:23;;;;;;;13.07;9.30;;;;;;;;;;1014942;28;20121;-76
2022/10/13 01:26:54;;;;;;;11.20;7.80;;;;;;;;;;1035204;28;20018;-78
2022/10/13 01:27:43;;;;;;;12.57;7.75;;;;;;;;;;1039591;28;20108;-76
2022/10/13 01:28:47;;;;;;;15.27;9.00;;;;;;;;;;1040111;28;20029;-75
2022/10/13 01:29:20;;;;;;;11.65;7.20;;;;;;;;;;1026516;28;20042;-76
2022/10/13 01:30:03;;;;;;;10.50;7.57;;;;;;;;;;1027134;28;20026;-76
2022/10/13 01:30:39;;;;;;;11.43;8.05;;;;;;;;;;1041958;28;20037;-77
2022/10/13 01:31:23;;;;;;;13.10;8.18;;;;;;;;;;1039744;28;20032;-77
2022/10/13 01:31:56;;;;;;;10.70;7.95;;;;;;;;;;1039306;28;20108;-77
2022/10/13 01:32:53;;;;;;;9.70;7.07;;;;;;;;;;1035070;28;20025;-77
2022/10/13 01:33:24;;;;;;;;;;;;;;;;;;1038269;28;20030;-77
2022/10/13 01:34:14;;;;;;;12.25;8.48;;;;;;;;;;1038909;28;19909;-76
2022/10/13 01:34:45;;;;;;;12.48;8.13;;;;;;;;;;1039241;28;20030;-76
2022/10/13 01:35:41;;;;;;;11.43;8.00;;;;;;;;;;1035027;28;20073;-76
2022/10/13 01:36:26;;;;;;;10.27;7.10;;;;;;;;;;1030388;28;20302;-76
2022/10/13 01:37:02;;;;;;;12.70;9.38;;;;;;;;;;1031248;28;20034;-76
2022/10/13 01:37:33;;;;;;;10.02;7.20;;;;;;;;;;1036308;28;20156;-76
2022/10/13 01:38:23;;;;;;;11.00;6.67;;;;;;;;;;1035222;28;20045;-77
2022/10/13 01:38:58;;;;;;;12.80;8.20;;;;;;;;;;1035278;28;20326;-76
2022/10/13 01:39:44;;;;;;;13.27;7.97;;;;;;;;;;1034496;28;20743;-76
2022/10/13 01:40:22;;;;;;;9.90;7.20;;;;;;;;;;1039527;28;20025;-76
2022/10/13 01:41:09;;;;;;;11.95;7.78;;;;;;;;;;1033469;28;20425;-75
2022/10/13 01:41:46;;;;;;;11.55;7.97;;;;;;;;;;1039359;28;20021;-77
2022/10/13 01:42:19;;;;;;;10.57;7.63;;;;;;;;;;1039297;28;20029;-77
2022/10/13 01:43:16;;;;;;;9.73;6.80;;;;;;;;;;1039235;28;20026;-76
2022/10/13 01:44:05;;;;;;;9.77;6.40;;;;;;;;;;1038981;28;20468;-77
2022/10/13 01:44:38;;;;;;;14.32;7.22;;;;;;;;;;1041019;28;20027;-76
2022/10/13 01:45:10;;;;;;;11.00;8.48;;;;;;;;;;1039264;28;20026;-76
2022/10/13 01:45:45;;;;;;;12.15;7.38;;;;;;;;;;1039470;28;20099;-76
2022/10/13 01:46:20;;;;;;;8.35;5.85;;;;;;;;;;1039856;28;20060;-76
2022/10/13 01:46:51;;;;;;;9.35;6.30;;;;;;;;;;1034971;28;20038;-75
2022/10/13 01:47:23;;;;;;;8.30;6.25;;;;;;;;;;1035149;28;20026;-75
2022/10/13 01:47:55;;;;;;;11.05;6.97;;;;;;;;;;1035903;28;20022;-75
2022/10/13 01:48:27;;;;;;;11.80;8.57;;;;;;;;;;1035507;28;20052;-75
2022/10/13 01:48:59;;;;;;;9.18;7.85;;;;;;;;;;1031652;28;20030;-75
2022/10/13 01:49:33;;;;;;;9.75;6.63;;;;;;;;;;1030799;28;20022;-76
2022/10/13 01:50:05;;;;;;;10.70;7.40;;;;;;;;;;1032265;28;20029;-76
2022/10/13 01:50:36;;;;;;;9.93;6.45;;;;;;;;;;1036216;28;20030;-76
2022/10/13 01:51:09;;;;;;;9.77;7.00;;;;;;;;;;1043820;28;20623;-78
2022/10/13 01:51:40;;;;;;;7.97;6.30;;;;;;;;;;1040640;28;20026;-76
2022/10/13 01:52:15;;;;;;;10.95;6.75;;;;;;;;;;1035398;28;20124;-77
2022/10/13 01:52:47;;;;;;;9.65;6.55;;;;;;;;;;1034991;28;20065;-75
2022/10/13 01:53:20;;;;;;;10.60;7.13;;;;;;;;;;1035429;28;20062;-75
2022/10/13 01:53:51;;;;;;;10.02;6.40;;;;;;;;;;1036761;28;20029;-76
2022/10/13 01:54:22;;;;;;;9.82;7.05;;;;;;;;;;1035053;28;20030;-75
2022/10/13 01:54:53;;;;;;;10.82;7.68;;;;;;;;;;1030992;28;20685;-75
2022/10/13 01:55:24;;;;;;;13.70;7.40;;;;;;;;;;1031610;28;20022;-76
2022/10/13 01:55:59;;;;;;;11.77;7.72;;;;;;;;;;1035558;28;20781;-74
2022/10/13 01:56:30;;;;;;;9.20;7.38;;;;;;;;;;1036077;28;20169;-75
2022/10/13 01:57:01;;;;;;;9.30;5.93;;;;;;;;;;1035292;28;20025;-76
2022/10/13 01:57:41;;;;;;;10.95;6.63;;;;;;;;;;1035391;28;20057;-76
2022/10/13 01:58:12;;;;;;;9.02;6.95;;;;;;;;;;1031055;28;20473;-76
2022/10/13 01:58:44;;;;;;;12.35;8.13;;;;;;;;;;1032778;28;20464;-76
2022/10/13 01:59:15;;;;;;;11.57;8.88;;;;;;;;;;1031502;28;20022;-77
2022/10/13 01:59:46;;;;;;;11.07;6.55;;;;;;;;;;1034490;28;20109;-75
2022/10/13 02:00:19;;;;;;;11.20;7.47;;;;;;;;;;1034822;28;20040;-75
2022/10/13 02:00:57;;;;;;;10.63;6.85;;;;;;;;;;1035705;28;20026;-76
2022/10/13 02:01:31;;;;;;;10.68;7.45;;;;;;;;;;1044940;28;20032;-76
2022/10/13 02:02:05;;;;;;;8.23;7.20;;;;;;;;;;1043633;28;20661;-76
2022/10/13 02:02:41;;;;;;;13.02;7.47;;;;;;;;;;1040585;28;20120;-76
2022/10/13 02:03:17;;;;;;;8.57;7.68;;;;;;;;;;1035233;28;20057;-76
2022/10/13 02:03:54;;;;;;;9.07;6.85;;;;;;;;;;1037416;28;20092;-76
2022/10/13 02:04:40;;;;;;;9.48;7.30;;;;;;;;;;1035483;28;20022;-76
2022/10/13 02:05:17;;;;;;;7.40;5.35;;;;;;;;;;1031068;28;20718;-77
2022/10/13 02:06:01;;;;;;;10.00;6.78;;;;;;;;;;1034991;28;20419;-76
2022/10/13 02:06:50;;;;;;;8.80;6.95;;;;;;;;;;1043040;28;20095;-76
2022/10/13 02:07:28;;;;;;;10.52;5.93;;;;;;;;;;1039583;28;20521;-76
2022/10/13 02:08:03;;;;;;;8.90;6.65;;;;;;;;;;1037096;28;20017;-76
2022/10/13 02:08:53;;;;;;;10.38;7.93;;;;;;;;;;1035807;28;20026;-76
2022/10/13 02:09:43;;;;;;;13.05;8.20;;;;;;;;;;1036854;28;20289;-77
2022/10/13 02:10:30;;;;;;;8.52;6.53;;;;;;;;;;1036811;28;20116;-76
2022/10/13 02:11:01;;;;;;;10.27;8.13;;;;;;;;;;1040149;28;20117;-77
2022/10/13 02:11:32;;;;;;;9.30;7.07;;;;;;;;;;1035580;28;20029;-77
2022/10/13 02:12:06;;;;;;;8.68;6.63;;;;;;;;;;1034968;28;20262;-76
2022/10/13 02:12:52;;;;;;;12.07;7.57;;;;;;;;;;1035977;28;20022;-76
2022/10/13 02:13:26;;;;;;;10.00;7.05;;;;;;;;;;1042189;28;20049;-77
2022/10/13 02:13:59;;;;;;;7.90;6.45;;;;;;;;;;1044708;28;20025;-77
2022/10/13 02:14:33;;;;;;;11.50;7.72;;;;;;;;;;1044988;28;20025;-78
2022/10/13 02:15:06;;;;;;;8.88;6.47;;;;;;;;;;1037073;28;20046;-76
2022/10/13 02:15:40;;;;;;;9.40;7.13;;;;;;;;;;1035965;28;20033;-76
2022/10/13 02:16:12;;;;;;;8.50;7.57;;;;;;;;;;1036948;28;20026;-76
2022/10/13 02:16:45;;;;;;;12.48;7.18;;;;;;;;;;1040401;28;20018;-77
2022/10/13 02:17:16;;;;;;;12.30;6.90;;;;;;;;;;1040208;28;20021;-76
2022/10/13 02:17:47;;;;;;;8.32;7.00;;;;;;;;;;1035817;28;20033;-79
2022/10/13 02:18:21;;;;;;;9.00;7.03;;;;;;;;;;1035983;28;20033;-76
2022/10/13 02:18:52;;;;;;;10.25;7.13;;;;;;;;;;1036653;28;20026;-77
2022/10/13 02:19:23;;;;;;;9.32;6.57;;;;;;;;;;1040439;28;20029;-76
2022/10/13 02:19:55;;;;;;;9.15;7.72;;;;;;;;;;1038858;28;20017;-76
2022/10/13 02:20:26;;;;;;;10.38;7.35;;;;;;;;;;1035777;28;20758;-76
2022/10/13 02:20:58;;;;;;;11.50;8.32;;;;;;;;;;1035930;28;20032;-76
2022/10/13 02:21:30;;;;;;;12.18;7.38;;;;;;;;;;1039548;28;20052;-76
2022/10/13 02:22:01;;;;;;;12.82;8.60;;;;;;;;;;1036702;28;20044;-76
2022/10/13 02:22:33;;;;;;;10.43;7.70;;;;;;;;;;1040124;28;20044;-77
2022/10/13 02:23:08;;;;;;;12.05;8.30;;;;;;;;;;1039651;28;20017;-77
2022/10/13 02:23:39;;;;;;;11.02;8.25;;;;;;;;;;1039703;28;20086;-76
2022/10/13 02:24:10;;;;;;;13.10;9.93;;;;;;;;;;1035946;28;20038;-76
2022/10/13 02:24:41;;;;;;;13.30;8.43;;;;;;;;;;1036617;28;20080;-76
2022/10/13 02:25:12;;;;;;;12.95;8.52;;;;;;;;;;1038482;28;20112;-76
2022/10/13 02:25:44;;;;;;;7.13;6.18;;;;;;;;;;1036928;28;20147;-76
2022/10/13 02:26:15;;;;;;;13.18;8.30;;;;;;;;;;1035975;28;20065;-77
2022/10/13 02:26:47;;;;;;;13.02;7.68;;;;;;;;;;1038315;28;20649;-76
2022/10/13 02:27:18;;;;;;;9.60;7.25;;;;;;;;;;1040732;28;20081;-76
2022/10/13 02:27:49;;;;;;;12.60;7.78;;;;;;;;;;1039700;28;20477;-76
2022/10/13 02:28:20;;;;;;;8.57;6.50;;;;;;;;;;1039628;28;20025;-77
2022/10/13 02:28:51;;;;;;;7.63;6.28;;;;;;;;;;1039966;28;20053;-77
2022/10/13 02:29:22;;;;;;;10.73;7.60;;;;;;;;;;1040260;28;20036;-77
2022/10/13 02:29:54;;;;;;;9.95;7.57;;;;;;;;;;1040995;28;20037;-77
2022/10/13 02:30:26;;;;;;;10.48;6.75;;;;;;;;;;1039850;28;20103;-77
2022/10/13 02:30:57;;;;;;;10.07;6.90;;;;;;;;;;1039884;28;20036;-77
2022/10/13 02:31:28;;;;;;;9.65;6.40;;;;;;;;;;1039880;28;20104;-76
2022/10/13 02:31:59;;;;;;;11.52;7.55;;;;;;;;;;1040359;28;20075;-77
2022/10/13 02:32:30;;;;;;;9.40;7.13;;;;;;;;;;1040907;28;20034;-76
2022/10/13 02:33:02;;;;;;;9.82;6.78;;;;;;;;;;1040398;28;20029;-76
2022/10/13 02:33:33;;;;;;;10.38;7.50;;;;;;;;;;1041356;28;20025;-77
2022/10/13 02:34:04;;;;;;;11.07;6.57;;;;;;;;;;1042291;28;20029;-77
2022/10/13 02:34:35;;;;;;;8.57;6.55;;;;;;;;;;1039826;28;20080;-78
2022/10/13 02:35:06;;;;;;;13.18;7.88;;;;;;;;;;1040691;28;20129;-77
2022/10/13 02:35:37;;;;;;;8.77;7.22;;;;;;;;;;1039792;28;20034;-78
2022/10/13 02:36:08;;;;;;;9.80;6.47;;;;;;;;;;1039975;28;20026;-77
2022/10/13 02:36:40;;;;;;;7.65;6.60;;;;;;;;;;1039724;28;20051;-77
2022/10/13 02:37:11;;;;;;;8.73;7.32;;;;;;;;;;1040249;28;20193;-78
2022/10/13 02:37:42;;;;;;;11.60;7.63;;;;;;;;;;1040262;28;20033;-77
2022/10/13 02:38:13;;;;;;;7.35;6.38;;;;;;;;;;1040126;28;20025;-77
2022/10/13 02:38:44;;;;;;;12.27;6.40;;;;;;;;;;1040121;28;20025;-77
2022/10/13 02:39:16;;;;;;;9.63;6.57;;;;;;;;;;1042632;28;20020;-76
2022/10/13 02:39:47;;;;;;;9.60;6.43;;;;;;;;;;1044763;28;20472;-78
2022/10/13 02:40:18;;;;;;;9.35;7.28;;;;;;;;;;1043852;28;20028;-77
2022/10/13 02:40:49;;;;;;;8.75;6.15;;;;;;;;;;1040945;28;20104;-77
2022/10/13 02:41:20;;;;;;;12.18;7.35;;;;;;;;;;1035611;28;20018;-77
2022/10/13 02:41:51;;;;;;;10.90;7.72;;;;;;;;;;1035818;28;20649;-77
2022/10/13 02:42:22;;;;;;;10.52;6.10;;;;;;;;;;1036912;28;20064;-77
2022/10/13 02:42:53;;;;;;;8.20;6.45;;;;;;;;;;1041274;28;20028;-77
2022/10/13 02:43:24;;;;;;;8.20;6.20;;;;;;;;;;1035664;28;20073;-77
2022/10/13 02:43:55;;;;;;;12.02;6.97;;;;;;;;;;1036033;28;20029;-77
2022/10/13 02:44:26;;;;;;;10.55;6.63;;;;;;;;;;1039605;28;20017;-77
2022/10/13 02:44:57;;;;;;;8.98;6.22;;;;;;;;;;1036287;28;20176;-77
2022/10/13 02:45:28;;;;;;;9.77;6.85;;;;;;;;;;1036081;28;20731;-77
2022/10/13 02:45:59;;;;;;;9.55;6.10;;;;;;;;;;1033815;28;20025;-77
2022/10/13 02:46:30;;;;;;;7.80;6.00;;;;;;;;;;1036012;28;20014;-77
2022/10/13 02:47:01;;;;;;;10.25;7.53;;;;;;;;;;1039779;28;20071;-77
2022/10/13 02:47:32;;;;;;;9.68;7.38;;;;;;;;;;1040924;28;20408;-77
2022/10/13 02:48:03;;;;;;;7.63;6.70;;;;;;;;;;1044376;28;20092;-77
2022/10/13 02:48:34;;;;;;;10.60;6.85;;;;;;;;;;1044294;28;20391;-77
2022/10/13 02:49:05;;;;;;;9.70;6.45;;;;;;;;;;1044315;28;20120;-76
2022/10/13 02:49:36;;;;;;;9.35;6.70;;;;;;;;;;1036137;28;20014;-78
2022/10/13 02:50:07;;;;;;;10.82;7.00;;;;;;;;;;1032486;28;20014;-78
2022/10/13 02:50:38;;;;;;;10.05;6.60;;;;;;;;;;1031753;28;20015;-77
2022/10/13 02:51:09;;;;;;;10.88;6.72;;;;;;;;;;1037231;28;20042;-77
2022/10/13 02:51:40;;;;;;;10.98;6.72;;;;;;;;;;1036561;28;20014;-77
2022/10/13 02:52:11;;;;;;;7.53;6.65;;;;;;;;;;1039404;28;20032;-77
2022/10/13 02:52:42;;;;;;;8.43;6.85;;;;;;;;;;1041693;28;20099;-76
2022/10/13 02:53:13;;;;;;;7.32;5.75;;;;;;;;;;1044301;28;20021;-76
2022/10/13 02:53:44;;;;;;;9.55;6.53;;;;;;;;;;1048088;28;20103;-77
2022/10/13 02:54:15;;;;;;;11.88;6.93;;;;;;;;;;1043806;28;20059;-78
2022/10/13 02:54:46;;;;;;;9.77;6.93;;;;;;;;;;1039655;28;20013;-77
2022/10/13 02:55:17;;;;;;;13.60;7.95;;;;;;;;;;1036409;28;20096;-77
2022/10/13 02:55:48;;;;;;;10.43;6.70;;;;;;;;;;1035345;28;20014;-77
2022/10/13 02:56:19;;;;;;;13.55;6.85;;;;;;;;;;1036817;28;20040;-77
2022/10/13 02:56:50;;;;;;;9.57;6.18;;;;;;;;;;1035531;28;20018;-76
2022/10/13 02:57:21;;;;;;;10.85;6.57;;;;;;;;;;1035914;28;20080;-77
2022/10/13 02:57:52;;;;;;;7.68;6.38;;;;;;;;;;1036153;28;20021;-77
2022/10/13 02:58:23;;;;;;;10.13;6.93;;;;;;;;;;1035840;28;20006;-77
2022/10/13 02:58:54;;;;;;;10.18;7.60;;;;;;;;;;1036022;28;20033;-75
2022/10/13 02:59:25;;;;;;;7.75;6.07;;;;;;;;;;1036748;28;20037;-77
2022/10/13 02:59:56;;;;;;;8.55;6.95;;;;;;;;;;1039805;28;20022;-77
2022/10/13 03:00:27;;;;;;;10.02;7.53;;;;;;;;;;1040591;28;20021;-77
2022/10/13 03:01:08;;;;;;;12.73;8.45;;;;;;;;;;1040083;28;20370;-77
2022/10/13 03:01:41;;;;;;;9.65;6.75;;;;;;;;;;1031672;28;20026;-77
2022/10/13 03:02:11;;;;;;;14.35;8.85;;;;;;;;;;1031337;28;20022;-77
2022/10/13 03:02:43;;;;;;;9.27;6.32;;;;;;;;;;1033413;28;20074;-77
2022/10/13 03:03:14;;;;;;;7.97;6.43;;;;;;;;;;1040488;28;20709;-77
2022/10/13 03:03:45;;;;;;;9.85;6.78;;;;;;;;;;1039950;28;20028;-78
2022/10/13 03:04:16;;;;;;;14.18;7.43;;;;;;;;;;1039493;28;20060;-77
2022/10/13 03:04:48;;;;;;;11.63;6.88;;;;;;;;;;1042290;28;20606;-78
2022/10/13 03:05:19;;;;;;;9.73;7.00;;;;;;;;;;1039603;28;20380;-78
2022/10/13 03:05:50;;;;;;;9.40;6.32;;;;;;;;;;1036182;28;20410;-77
2022/10/13 03:06:21;;;;;;;8.30;5.50;;;;;;;;;;1038175;28;20026;-77
2022/10/13 03:06:52;;;;;;;9.52;6.07;;;;;;;;;;1033991;28;20588;-76
2022/10/13 03:07:23;;;;;;;12.20;8.45;;;;;;;;;;1035426;28;20501;-78
2022/10/13 03:07:54;;;;;;;9.90;7.60;;;;;;;;;;1037321;28;20029;-77
2022/10/13 03:08:25;;;;;;;9.73;6.95;;;;;;;;;;1043673;28;20053;-77
2022/10/13 03:08:56;;;;;;;11.15;7.10;;;;;;;;;;1044259;28;20104;-77
2022/10/13 03:09:27;;;;;;;10.68;6.88;;;;;;;;;;1043942;28;20231;-76
2022/10/13 03:09:58;;;;;;;9.60;7.50;;;;;;;;;;1040655;28;20061;-77
2022/10/13 03:10:30;;;;;;;8.73;7.32;;;;;;;;;;1040305;28;20041;-77
2022/10/13 03:11:02;;;;;;;13.90;7.63;;;;;;;;;;1039956;28;20055;-77
2022/10/13 03:11:33;;;;;;;10.23;7.93;;;;;;;;;;1035439;28;20164;-77
2022/10/13 03:12:04;;;;;;;11.48;6.95;;;;;;;;;;1031736;28;20033;-77
2022/10/13 03:12:35;;;;;;;10.23;7.65;;;;;;;;;;1029402;28;20140;-77
2022/10/13 03:13:06;;;;;;;10.43;8.10;;;;;;;;;;1029435;28;20031;-78
2022/10/13 03:13:37;;;;;;;9.57;7.10;;;;;;;;;;1035589;28;20022;-77
2022/10/13 03:14:09;;;;;;;11.00;6.43;;;;;;;;;;1039921;28;20059;-77
2022/10/13 03:14:40;;;;;;;10.60;7.10;;;;;;;;;;1039795;28;20029;-77
2022/10/13 03:15:11;;;;;;;9.18;6.38;;;;;;;;;;1035399;28;20057;-77
2022/10/13 03:15:41;;;;;;;10.02;6.85;;;;;;;;;;1035959;28;20044;-77
2022/10/13 03:16:12;;;;;;;11.13;6.72;;;;;;;;;;1035526;28;20034;-77
2022/10/13 03:16:43;;;;;;;9.38;7.40;;;;;;;;;;1037404;28;20033;-75
2022/10/13 03:17:14;;;;;;;7.18;6.22;;;;;;;;;;1040045;28;20770;-75
2022/10/13 03:17:45;;;;;;;9.77;6.65;;;;;;;;;;1034464;28;20083;-76
2022/10/13 03:18:16;;;;;;;8.68;6.65;;;;;;;;;;1037684;28;20029;-76
2022/10/13 03:18:47;;;;;;;11.48;6.75;;;;;;;;;;1039429;28;20032;-76
2022/10/13 03:19:18;;;;;;;11.68;6.65;;;;;;;;;;1035897;28;20021;-75
2022/10/13 03:19:49;;;;;;;8.13;6.35;;;;;;;;;;1035470;28;20021;-75
2022/10/13 03:20:20;;;;;;;12.40;8.60;;;;;;;;;;1031756;28;20478;-76